createdAt,value
2022-09-21T00:01:31.799Z,13.88
2022-09-21T00:04:02.172Z,13.88
2022-09-21T00:06:35.138Z,13.93
2022-09-21T00:09:05.330Z,13.95
2022-09-21T00:11:35.308Z,14.01
2022-09-21T00:14:07.182Z,14.02
2022-09-21T00:16:36.926Z,13.99
2022-09-21T00:19:06.834Z,13.96
2022-09-21T00:21:38.897Z,13.95
2022-09-21T00:24:08.814Z,13.86
2022-09-21T00:26:38.314Z,13.90
2022-09-21T00:29:08.168Z,13.89
2022-09-21T00:31:37.646Z,13.93
2022-09-21T00:34:07.867Z,13.97
2022-09-21T00:36:40.026Z,13.95
2022-09-21T00:39:09.463Z,13.98
2022-09-21T00:41:38.869Z,13.96
2022-09-21T00:44:27.249Z,13.96
2022-09-21T00:46:58.058Z,13.97
2022-09-21T00:49:27.576Z,13.97
2022-09-21T00:51:59.645Z,14.00
2022-09-21T00:54:31.214Z,14.01
2022-09-21T00:57:03.102Z,14.03
2022-09-21T00:59:33.060Z,14.01
2022-09-21T01:02:02.687Z,14.00
2022-09-21T01:04:32.171Z,13.98
2022-09-21T01:07:05.679Z,13.91
2022-09-21T01:09:35.096Z,13.93
2022-09-21T01:12:15.132Z,13.99
2022-09-21T01:14:59.938Z,13.96
2022-09-21T01:17:33.743Z,13.91
2022-09-21T01:20:39.470Z,13.87
2022-09-21T01:23:19.164Z,13.87
2022-09-21T01:25:55.814Z,13.90
2022-09-21T01:28:29.335Z,13.82
2022-09-21T01:31:06.173Z,13.82
2022-09-21T01:33:37.460Z,13.78
2022-09-21T01:36:08.837Z,13.76
2022-09-21T01:38:39.385Z,13.75
2022-09-21T01:41:08.859Z,13.77
2022-09-21T01:43:39.402Z,13.73
2022-09-21T01:46:13.891Z,13.65
2022-09-21T01:48:44.873Z,13.59
2022-09-21T01:51:15.030Z,13.48
2022-09-21T01:53:45.586Z,13.37
2022-09-21T01:56:16.236Z,13.34
2022-09-21T01:58:47.592Z,13.23
2022-09-21T02:01:20.742Z,13.01
2022-09-21T02:03:51.748Z,12.91
2022-09-21T02:06:21.550Z,12.60
2022-09-21T02:08:50.937Z,12.66
2022-09-21T02:11:20.613Z,12.61
2022-09-21T02:13:51.769Z,12.80
2022-09-21T02:16:32.720Z,12.77
2022-09-21T02:19:10.877Z,12.81
2022-09-21T02:21:47.039Z,12.88
2022-09-21T02:24:20.806Z,12.95
2022-09-21T02:26:53.042Z,12.94
2022-09-21T02:29:23.711Z,12.94
2022-09-21T02:31:58.163Z,12.93
2022-09-21T02:34:29.615Z,12.91
2022-09-21T02:37:01.313Z,12.90
2022-09-21T02:39:33.228Z,12.89
2022-09-21T02:42:05.578Z,12.85
2022-09-21T02:44:35.882Z,12.80
2022-09-21T02:47:11.378Z,12.77
2022-09-21T02:49:42.245Z,12.73
2022-09-21T02:52:14.275Z,12.71
2022-09-21T02:54:44.963Z,12.69
2022-09-21T02:57:14.374Z,12.67
2022-09-21T02:59:43.787Z,12.68
2022-09-21T03:02:15.812Z,12.64
2022-09-21T03:04:47.227Z,12.60
2022-09-21T03:07:16.806Z,12.58
2022-09-21T03:09:46.602Z,12.56
2022-09-21T03:12:15.985Z,12.56
2022-09-21T03:14:45.375Z,12.53
2022-09-21T03:17:17.371Z,12.49
2022-09-21T03:19:46.778Z,12.42
2022-09-21T03:22:17.555Z,12.40
2022-09-21T03:24:49.626Z,12.39
2022-09-21T03:27:19.924Z,12.37
2022-09-21T03:29:49.814Z,12.36
2022-09-21T03:32:21.800Z,12.32
2022-09-21T03:34:51.361Z,12.29
2022-09-21T03:37:20.765Z,12.27
2022-09-21T03:39:50.356Z,12.26
2022-09-21T03:42:19.730Z,12.20
2022-09-21T03:44:49.116Z,12.18
2022-09-21T03:47:21.092Z,12.16
2022-09-21T03:49:50.515Z,12.12
2022-09-21T03:52:19.905Z,12.08
2022-09-21T03:54:49.306Z,12.06
2022-09-21T03:57:18.703Z,12.06
2022-09-21T03:59:48.194Z,12.04
2022-09-21T04:02:17.653Z,12.02
2022-09-21T04:04:50.001Z,11.99
2022-09-21T04:07:19.598Z,12.00
2022-09-21T04:09:49.199Z,11.96
2022-09-21T04:12:18.837Z,11.91
2022-09-21T04:14:49.817Z,11.90
2022-09-21T04:17:19.313Z,11.90
2022-09-21T04:19:51.293Z,11.91
2022-09-21T04:22:20.683Z,11.89
2022-09-21T04:24:50.078Z,11.90
2022-09-21T04:27:19.497Z,11.86
2022-09-21T04:29:49.038Z,11.84
2022-09-21T04:32:18.456Z,11.80
2022-09-21T04:34:47.850Z,11.78
2022-09-21T04:37:19.834Z,11.73
2022-09-21T04:39:49.205Z,11.69
2022-09-21T04:42:18.666Z,11.67
2022-09-21T04:44:48.053Z,11.68
2022-09-21T04:47:17.486Z,11.68
2022-09-21T04:49:46.905Z,11.68
2022-09-21T04:52:19.299Z,11.67
2022-09-21T04:54:48.835Z,11.64
2022-09-21T04:57:18.262Z,11.60
2022-09-21T04:59:47.671Z,11.57
2022-09-21T05:02:17.120Z,11.57
2022-09-21T05:04:50.661Z,11.54
2022-09-21T05:07:23.134Z,11.57
2022-09-21T05:10:05.220Z,11.54
2022-09-21T05:12:36.686Z,11.53
2022-09-21T05:15:09.532Z,11.50
2022-09-21T05:17:38.968Z,11.50
2022-09-21T05:20:09.243Z,11.56
2022-09-21T05:22:41.353Z,11.61
2022-09-21T05:25:12.318Z,11.61
2022-09-21T05:27:41.720Z,11.56
2022-09-21T05:30:12.753Z,11.54
2022-09-21T05:32:46.777Z,11.52
2022-09-21T05:35:20.967Z,11.49
2022-09-21T05:37:56.151Z,11.47
2022-09-21T05:40:26.238Z,11.46
2022-09-21T05:42:56.304Z,11.48
2022-09-21T05:45:28.821Z,11.45
2022-09-21T05:48:01.149Z,11.44
2022-09-21T05:50:36.882Z,11.53
2022-09-21T05:53:29.593Z,11.61
2022-09-21T05:56:00.842Z,11.70
2022-09-21T05:58:38.671Z,11.81
2022-09-21T06:01:20.010Z,11.88
2022-09-21T06:03:50.308Z,11.95
2022-09-21T06:06:20.102Z,11.96
2022-09-21T06:08:52.166Z,12.07
2022-09-21T06:11:21.859Z,12.20
2022-09-21T06:13:51.271Z,12.29
2022-09-21T06:16:20.753Z,12.31
2022-09-21T06:18:50.155Z,12.27
2022-09-21T06:21:19.574Z,12.21
2022-09-21T06:23:49.080Z,12.20
2022-09-21T06:26:21.129Z,12.27
2022-09-21T06:28:50.513Z,12.18
2022-09-21T06:31:19.914Z,11.89
2022-09-21T06:33:49.326Z,11.79
2022-09-21T06:36:18.819Z,11.96
2022-09-21T06:38:48.845Z,12.07
2022-09-21T06:41:21.566Z,12.02
2022-09-21T06:43:51.061Z,12.22
2022-09-21T06:46:20.524Z,12.45
2022-09-21T06:48:50.249Z,12.50
2022-09-21T06:51:21.642Z,12.60
2022-09-21T06:53:51.042Z,12.68
2022-09-21T06:56:23.078Z,12.89
2022-09-21T06:58:52.544Z,12.77
2022-09-21T07:01:22.283Z,12.81
2022-09-21T07:03:52.227Z,12.80
2022-09-21T07:06:21.731Z,12.84
2022-09-21T07:11:44.142Z,12.87
2022-09-21T07:14:14.171Z,13.11
2022-09-21T07:16:43.715Z,13.42
2022-09-21T07:19:13.323Z,13.59
2022-09-21T07:21:42.778Z,13.72
2022-09-21T07:24:12.806Z,13.92
2022-09-21T07:26:44.918Z,13.49
2022-09-21T07:29:14.355Z,13.71
2022-09-21T07:31:45.996Z,13.98
2022-09-21T07:34:15.498Z,14.64
2022-09-21T07:36:44.890Z,14.91
2022-09-21T07:39:14.319Z,15.05
2022-09-21T07:41:46.293Z,15.22
2022-09-21T07:44:15.725Z,15.37
2022-09-21T07:46:48.249Z,15.54
2022-09-21T07:49:18.049Z,15.89
2022-09-21T07:51:47.445Z,15.88
2022-09-21T07:54:17.037Z,15.90
2022-09-21T07:57:09.174Z,15.96
2022-09-21T07:59:36.035Z,16.11
2022-09-21T08:02:05.543Z,16.06
2022-09-21T08:04:34.980Z,16.35
2022-09-21T08:07:04.911Z,16.32
2022-09-21T08:09:34.834Z,16.26
2022-09-21T08:12:07.009Z,16.59
2022-09-21T08:14:36.413Z,16.86
2022-09-21T08:17:05.853Z,16.97
2022-09-21T08:19:36.431Z,17.13
2022-09-21T08:22:06.471Z,17.40
2022-09-21T08:24:37.053Z,17.44
2022-09-21T08:27:09.117Z,17.39
2022-09-21T08:29:38.564Z,17.57
2022-09-21T08:32:08.395Z,17.64
2022-09-21T08:34:37.802Z,17.81
2022-09-21T08:37:07.892Z,17.64
2022-09-21T08:39:37.735Z,17.84
2022-09-21T08:42:22.723Z,18.05
2022-09-21T08:44:54.224Z,18.22
2022-09-21T08:47:35.990Z,18.35
2022-09-21T08:50:05.970Z,18.40
2022-09-21T08:52:35.373Z,18.57
2022-09-21T08:55:05.617Z,18.68
2022-09-21T08:57:37.721Z,18.65
2022-09-21T09:00:11.086Z,18.67
2022-09-21T09:02:44.392Z,18.89
2022-09-21T09:05:26.148Z,18.94
2022-09-21T09:08:19.617Z,19.05
2022-09-21T09:10:55.390Z,19.33
2022-09-21T09:13:39.726Z,18.99
2022-09-21T09:16:13.687Z,19.22
2022-09-21T09:18:46.159Z,19.35
2022-09-21T09:21:27.680Z,19.45
2022-09-21T09:24:00.967Z,19.69
2022-09-21T09:26:32.741Z,19.83
2022-09-21T09:29:05.668Z,19.95
2022-09-21T09:31:35.968Z,20.07
2022-09-21T09:34:10.268Z,20.08
2022-09-21T09:36:57.683Z,19.61
2022-09-21T09:39:28.094Z,19.41
2022-09-21T09:42:29.205Z,19.35
2022-09-21T09:45:24.802Z,19.67
2022-09-21T09:48:02.540Z,19.53
2022-09-21T09:50:32.819Z,19.46
2022-09-21T09:53:05.051Z,19.35
2022-09-21T09:55:39.140Z,19.38
2022-09-21T09:58:09.574Z,19.25
2022-09-21T10:00:41.561Z,19.24
2022-09-21T10:03:19.396Z,18.66
2022-09-21T10:05:48.806Z,17.82
2022-09-21T10:08:50.067Z,17.93
2022-09-21T10:11:19.459Z,18.13
2022-09-21T10:13:49.353Z,17.94
2022-09-21T10:16:22.216Z,18.67
2022-09-21T10:18:52.285Z,19.12
2022-09-21T10:21:23.109Z,19.36
2022-09-21T10:23:53.147Z,19.42
2022-09-21T10:26:22.744Z,18.89
2022-09-21T10:28:59.385Z,18.77
2022-09-21T10:31:31.653Z,18.82
2022-09-21T10:34:16.022Z,19.64
2022-09-21T10:36:51.222Z,19.13
2022-09-21T10:39:25.328Z,18.55
2022-09-21T10:41:56.973Z,19.41
2022-09-21T10:44:28.530Z,19.97
2022-09-21T10:47:07.728Z,19.13
2022-09-21T10:49:37.197Z,19.17
2022-09-21T10:52:22.518Z,19.37
2022-09-21T10:54:53.379Z,19.69
2022-09-21T10:57:24.246Z,20.21
2022-09-21T10:59:53.805Z,20.51
2022-09-21T11:02:38.599Z,20.99
2022-09-21T11:05:12.489Z,21.33
2022-09-21T11:07:46.615Z,21.33
2022-09-21T11:10:20.135Z,21.25
2022-09-21T11:12:57.298Z,21.32
2022-09-21T11:15:33.962Z,21.45
2022-09-21T11:18:11.492Z,21.64
2022-09-21T11:20:45.245Z,21.89
2022-09-21T11:23:26.051Z,22.20
2022-09-21T11:25:58.512Z,22.07
2022-09-21T11:28:29.944Z,20.78
2022-09-21T11:31:21.809Z,20.71
2022-09-21T11:34:03.070Z,21.57
2022-09-21T11:36:37.086Z,22.17
2022-09-21T11:39:11.653Z,22.44
2022-09-21T11:41:51.753Z,21.97
2022-09-21T11:44:37.067Z,22.11
2022-09-21T11:47:13.736Z,22.08
2022-09-21T11:50:29.399Z,21.93
2022-09-21T11:52:58.334Z,22.28
2022-09-21T11:55:49.702Z,22.40
2022-09-21T11:58:25.969Z,21.97
2022-09-21T12:01:01.577Z,21.49
2022-09-21T12:03:53.859Z,21.79
2022-09-21T12:06:36.338Z,22.33
2022-09-21T12:09:41.759Z,21.80
2022-09-21T12:12:12.614Z,21.85
2022-09-21T12:14:45.626Z,21.75
2022-09-21T12:17:17.667Z,22.10
2022-09-21T12:19:52.311Z,21.80
2022-09-21T12:22:27.573Z,21.91
2022-09-21T12:24:58.686Z,22.24
2022-09-21T12:27:29.965Z,21.81
2022-09-21T12:30:01.436Z,21.99
2022-09-21T12:32:36.302Z,21.86
2022-09-21T12:35:08.326Z,21.72
2022-09-21T12:37:43.545Z,21.62
2022-09-21T12:40:19.435Z,22.18
2022-09-21T12:42:51.178Z,22.53
2022-09-21T12:45:24.348Z,22.79
2022-09-21T12:47:58.663Z,22.14
2022-09-21T12:50:33.059Z,21.70
2022-09-21T12:53:05.054Z,21.75
2022-09-21T12:55:38.126Z,22.03
2022-09-21T12:58:15.565Z,21.38
2022-09-21T13:00:50.385Z,21.00
2022-09-21T13:03:22.156Z,20.73
2022-09-21T13:05:59.964Z,20.46
2022-09-21T13:08:33.322Z,20.37
2022-09-21T13:11:04.865Z,21.09
2022-09-21T13:13:35.218Z,21.82
2022-09-21T13:16:04.826Z,21.73
2022-09-21T13:18:36.552Z,22.06
2022-09-21T13:21:17.964Z,21.67
2022-09-21T13:23:54.694Z,22.23
2022-09-21T13:26:33.179Z,21.45
2022-09-21T13:29:06.269Z,21.10
2022-09-21T13:31:44.179Z,21.57
2022-09-21T13:34:27.249Z,21.77
2022-09-21T13:37:35.593Z,21.86
2022-09-21T13:40:42.019Z,21.59
2022-09-21T13:43:47.259Z,22.23
2022-09-21T13:46:53.676Z,21.43
2022-09-21T13:49:47.558Z,21.33
2022-09-21T13:52:32.591Z,21.86
2022-09-21T13:55:04.145Z,21.14
2022-09-21T13:57:36.915Z,21.29
2022-09-21T14:00:36.644Z,21.44
2022-09-21T14:03:07.300Z,21.99
2022-09-21T14:05:39.367Z,22.56
2022-09-21T14:08:20.238Z,22.64
2022-09-21T14:10:52.814Z,22.83
2022-09-21T14:13:29.550Z,22.51
2022-09-21T14:16:16.500Z,22.60
2022-09-21T14:18:46.952Z,22.71
2022-09-21T14:21:20.395Z,22.95
2022-09-21T14:24:11.821Z,22.97
2022-09-21T14:26:52.183Z,22.36
2022-09-21T14:29:25.227Z,22.41
2022-09-21T14:31:59.852Z,22.62
2022-09-21T14:34:31.683Z,22.17
2022-09-21T14:37:01.663Z,21.72
2022-09-21T14:39:32.858Z,21.70
2022-09-21T14:42:04.242Z,21.36
2022-09-21T14:44:34.044Z,21.44
2022-09-21T14:47:15.441Z,21.55
2022-09-21T14:49:54.086Z,21.59
2022-09-21T14:52:40.303Z,20.88
2022-09-21T14:55:17.324Z,21.02
2022-09-21T14:57:52.917Z,21.43
2022-09-21T15:00:26.646Z,21.35
2022-09-21T15:03:07.970Z,21.59
2022-09-21T15:05:38.889Z,21.94
2022-09-21T15:08:25.084Z,22.12
2022-09-21T15:11:00.881Z,22.35
2022-09-21T15:13:51.872Z,21.99
2022-09-21T15:16:27.528Z,21.77
2022-09-21T15:19:16.303Z,21.00
2022-09-21T15:21:46.532Z,20.95
2022-09-21T15:24:21.145Z,20.37
2022-09-21T15:26:51.603Z,20.48
2022-09-21T15:29:27.483Z,20.23
2022-09-21T15:31:57.248Z,20.37
2022-09-21T15:34:29.713Z,20.14
2022-09-21T15:37:08.956Z,20.42
2022-09-21T15:39:38.427Z,20.65
2022-09-21T15:42:23.169Z,20.76
2022-09-21T15:44:53.042Z,20.83
2022-09-21T15:47:23.810Z,20.79
2022-09-21T15:49:56.205Z,20.67
2022-09-21T15:52:32.156Z,20.52
2022-09-21T15:55:02.903Z,20.62
2022-09-21T15:57:38.804Z,20.54
2022-09-21T16:00:19.891Z,20.69
2022-09-21T16:03:04.574Z,20.36
2022-09-21T16:05:45.811Z,20.42
2022-09-21T16:08:24.259Z,20.28
2022-09-21T16:10:53.789Z,20.37
2022-09-21T16:13:36.086Z,20.29
2022-09-21T16:16:06.369Z,20.22
2022-09-21T16:18:43.209Z,20.19
2022-09-21T16:21:20.425Z,19.99
2022-09-21T16:23:50.374Z,19.91
2022-09-21T16:26:22.062Z,19.87
2022-09-21T16:28:51.900Z,20.06
2022-09-21T16:31:30.093Z,20.22
2022-09-21T16:34:07.528Z,20.19
2022-09-21T16:36:44.179Z,20.26
2022-09-21T16:39:17.666Z,20.38
2022-09-21T16:41:52.445Z,20.32
2022-09-21T16:44:25.600Z,20.38
2022-09-21T16:47:00.145Z,20.40
2022-09-21T16:49:32.759Z,20.35
2022-09-21T16:52:05.342Z,20.44
2022-09-21T16:54:35.052Z,20.46
2022-09-21T16:57:05.392Z,20.44
2022-09-21T16:59:36.540Z,20.40
2022-09-21T17:02:07.190Z,20.34
2022-09-21T17:04:37.235Z,20.26
2022-09-21T17:07:09.222Z,20.19
2022-09-21T17:09:39.572Z,20.12
2022-09-21T17:12:11.174Z,20.01
2022-09-21T17:14:46.227Z,19.96
2022-09-21T17:17:18.526Z,19.92
2022-09-21T17:19:49.873Z,19.81
2022-09-21T17:22:22.836Z,19.77
2022-09-21T17:24:54.794Z,19.71
2022-09-21T17:27:26.684Z,19.62
2022-09-21T17:29:57.077Z,19.54
2022-09-21T17:32:26.818Z,19.50
2022-09-21T17:35:01.665Z,19.42
2022-09-21T17:37:33.817Z,19.34
2022-09-21T17:40:09.890Z,19.25
2022-09-21T17:42:41.810Z,19.19
2022-09-21T17:45:18.850Z,19.14
2022-09-21T17:47:50.298Z,19.11
2022-09-21T17:50:27.333Z,19.04
2022-09-21T17:53:12.807Z,18.97
2022-09-21T17:55:42.567Z,18.93
2022-09-21T17:58:25.961Z,18.87
2022-09-21T18:00:59.504Z,18.81
2022-09-21T18:03:30.343Z,18.80
2022-09-21T18:06:01.202Z,18.77
2022-09-21T18:08:34.554Z,18.66
2022-09-21T18:11:08.997Z,18.63
2022-09-21T18:13:44.433Z,18.59
2022-09-21T18:16:22.008Z,18.56
2022-09-21T18:18:55.377Z,18.53
2022-09-21T18:21:28.052Z,18.47
2022-09-21T18:24:21.999Z,18.38
2022-09-21T18:26:52.621Z,18.26
2022-09-21T18:29:46.523Z,18.21
2022-09-21T18:32:26.988Z,18.24
2022-09-21T18:35:20.935Z,18.23
2022-09-21T18:37:58.233Z,18.25
2022-09-21T18:40:34.642Z,18.21
2022-09-21T18:43:07.638Z,18.20
2022-09-21T18:45:39.667Z,18.21
2022-09-21T18:48:19.770Z,18.26
2022-09-21T18:50:52.469Z,18.27
2022-09-21T18:53:27.057Z,18.25
2022-09-21T18:56:00.201Z,18.26
2022-09-21T18:58:30.602Z,18.21
2022-09-21T19:01:00.806Z,18.19
2022-09-21T19:03:31.107Z,18.22
2022-09-21T19:06:11.529Z,18.22
2022-09-21T19:08:44.362Z,18.16
2022-09-21T19:11:21.716Z,17.89
2022-09-21T19:13:55.345Z,17.92
2022-09-21T19:16:27.795Z,17.98
2022-09-21T19:19:03.200Z,17.94
2022-09-21T19:21:36.578Z,17.84
2022-09-21T19:24:11.877Z,17.80
2022-09-21T19:26:49.300Z,17.83
2022-09-21T19:29:35.244Z,17.77
2022-09-21T19:32:04.977Z,17.70
2022-09-21T19:34:34.828Z,17.61
2022-09-21T19:37:07.804Z,17.59
2022-09-21T19:39:38.090Z,17.55
2022-09-21T19:42:17.677Z,17.52
2022-09-21T19:44:53.838Z,17.48
2022-09-21T19:47:29.313Z,17.38
2022-09-21T19:50:01.810Z,17.28
2022-09-21T19:52:33.363Z,17.12
2022-09-21T19:55:15.922Z,17.07
2022-09-21T19:58:09.925Z,17.05
2022-09-21T20:00:39.391Z,17.00
2022-09-21T20:03:13.853Z,16.95
2022-09-21T20:05:49.039Z,16.89
2022-09-21T20:08:21.684Z,16.83
2022-09-21T20:10:57.155Z,16.82
2022-09-21T20:13:33.773Z,16.80
2022-09-21T20:16:08.093Z,16.70
2022-09-21T20:18:41.409Z,16.58
2022-09-21T20:21:13.456Z,16.52
2022-09-21T20:23:43.593Z,16.51
2022-09-21T20:26:27.184Z,16.52
2022-09-21T20:28:59.749Z,16.49
2022-09-21T20:31:29.141Z,16.50
2022-09-21T20:33:58.547Z,16.46
2022-09-21T20:36:27.985Z,16.45
2022-09-21T20:39:00.463Z,16.42
2022-09-21T20:41:29.866Z,16.41
2022-09-21T20:44:02.017Z,16.39
2022-09-21T20:46:31.528Z,16.35
2022-09-21T20:49:04.639Z,16.33
2022-09-21T20:51:34.788Z,16.33
2022-09-21T20:54:04.763Z,16.29
2022-09-21T20:56:34.399Z,16.30
2022-09-21T20:59:06.434Z,16.23
2022-09-21T21:01:35.970Z,16.23
2022-09-21T21:04:05.475Z,16.22
2022-09-21T21:06:35.101Z,16.18
2022-09-21T21:09:04.512Z,16.12
2022-09-21T21:11:34.127Z,16.10
2022-09-21T21:14:06.097Z,16.07
2022-09-21T21:16:35.630Z,16.04
2022-09-21T21:19:05.081Z,16.01
2022-09-21T21:21:34.632Z,15.96
2022-09-21T21:24:16.885Z,15.95
2022-09-21T21:27:03.091Z,15.92
2022-09-21T21:29:35.518Z,15.88
2022-09-21T21:32:05.469Z,15.85
2022-09-21T21:34:34.935Z,15.79
2022-09-21T21:37:04.374Z,15.80
2022-09-21T21:39:33.841Z,15.80
2022-09-21T21:42:03.234Z,15.75
2022-09-21T21:44:35.212Z,15.72
2022-09-21T21:47:27.414Z,15.69
2022-09-21T21:49:53.995Z,15.61
2022-09-21T21:52:23.514Z,15.60
2022-09-21T21:54:52.907Z,15.57
2022-09-21T21:57:22.865Z,15.51
2022-09-21T21:59:54.855Z,15.33
2022-09-21T22:02:24.373Z,15.32
2022-09-21T22:04:53.805Z,15.30
2022-09-21T22:07:23.210Z,15.34
2022-09-21T22:09:52.615Z,15.34
2022-09-21T22:12:22.140Z,15.29
2022-09-21T22:14:54.118Z,15.28
2022-09-21T22:17:23.602Z,15.28
2022-09-21T22:19:54.104Z,15.18
2022-09-21T22:22:23.522Z,15.17
2022-09-21T22:24:52.910Z,15.14
2022-09-21T22:27:22.410Z,15.13
2022-09-21T22:29:54.734Z,15.06
2022-09-21T22:32:24.150Z,15.02
2022-09-21T22:34:53.548Z,14.95
2022-09-21T22:37:22.985Z,14.91
2022-09-21T22:39:53.113Z,14.85
2022-09-21T22:42:23.306Z,14.83
2022-09-21T22:44:55.275Z,14.79
2022-09-21T22:47:24.672Z,14.77
2022-09-21T22:49:54.066Z,14.77
2022-09-21T22:52:23.820Z,14.72
2022-09-21T22:54:53.525Z,14.68
2022-09-21T22:57:22.944Z,14.68
2022-09-21T22:59:54.953Z,14.62
2022-09-21T23:02:24.588Z,14.58
2022-09-21T23:04:53.983Z,14.54
2022-09-21T23:07:23.387Z,14.47
2022-09-21T23:09:52.776Z,14.39
2022-09-21T23:12:22.222Z,14.37
2022-09-21T23:14:51.614Z,14.36
2022-09-21T23:17:24.331Z,14.33
2022-09-21T23:19:53.709Z,14.31
2022-09-21T23:22:23.130Z,14.28
2022-09-21T23:24:52.510Z,14.27
2022-09-21T23:27:21.909Z,14.25
2022-09-21T23:29:51.293Z,14.25
2022-09-21T23:32:23.296Z,14.17
2022-09-21T23:34:52.685Z,14.16
2022-09-21T23:37:22.089Z,14.11
2022-09-21T23:39:51.488Z,14.09
2022-09-21T23:42:20.912Z,14.08
2022-09-21T23:44:50.301Z,14.07
2022-09-21T23:47:19.737Z,14.02
2022-09-21T23:49:51.716Z,13.95
2022-09-21T23:52:21.282Z,13.89
2022-09-21T23:54:50.674Z,13.87
2022-09-21T23:57:20.116Z,13.88
2022-09-21T23:59:50.148Z,13.85
